Time;durP1;ratioP1;P1;durP2;ratioP2;P2;SDS_P1;SDS_P2;PMS_P1;PMS_P2;Temp;Humidity;BMP_temperature;BMP_pressure;BME280_temperature;BME280_humidity;BME280_pressure;Samples;Min_cycle;Max_cycle;Signal;HPM_P1;HPM_P2
2022/08/10 00:01:50;;;;;;;3.10;2.90;;;28.20;50.60;;;;;;5079578;28;20446;-68
2022/08/10 00:04:20;;;;;;;3.93;3.73;;;28.20;51.20;;;;;;5081736;28;20460;-68
2022/08/10 00:06:51;;;;;;;3.37;3.17;;;28.30;50.40;;;;;;5087416;28;20482;-68
2022/08/10 00:09:19;;;;;;;2.80;2.70;;;28.30;50.40;;;;;;5079322;28;20462;-68
2022/08/10 00:11:47;;;;;;;3.83;3.23;;;28.30;51.30;;;;;;5065374;28;20467;-68
2022/08/10 00:14:16;;;;;;;3.07;2.87;;;28.40;50.10;;;;;;5071192;28;20968;-68
2022/08/10 00:16:45;;;;;;;4.60;2.90;;;28.40;51.10;;;;;;5072279;28;20470;-68
2022/08/10 00:19:14;;;;;;;3.43;3.17;;;28.50;49.90;;;;;;5072200;28;20491;-68
2022/08/10 00:21:45;;;;;;;3.37;3.07;;;28.40;50.20;;;;;;5072195;28;20433;-68
2022/08/10 00:24:14;;;;;;;3.50;3.30;;;28.30;50.70;;;;;;5070895;28;20451;-68
2022/08/10 00:26:42;;;;;;;3.10;2.90;;;28.30;50.30;;;;;;5083690;28;20462;-68
2022/08/10 00:29:30;;;;;;;2.90;2.80;;;28.20;50.30;;;;;;5074142;28;20471;-68
2022/08/10 00:32:00;;;;;;;3.13;2.90;;;28.20;51.00;;;;;;5085426;28;21050;-68
2022/08/10 00:34:29;;;;;;;3.17;2.77;;;28.20;50.40;;;;;;5078775;28;20467;-68
2022/08/10 00:36:57;;;;;;;3.40;3.20;;;28.10;50.70;;;;;;5080212;28;20445;-68
2022/08/10 00:39:26;;;;;;;2.47;2.37;;;28.10;50.60;;;;;;5083472;28;20467;-68
2022/08/10 00:41:55;;;;;;;2.87;2.77;;;28.10;51.10;;;;;;5088706;28;20484;-68
2022/08/10 00:44:36;;;;;;;3.80;3.50;;;28.10;50.60;;;;;;5070683;28;20477;-68
2022/08/10 00:47:06;;;;;;;3.30;3.10;;;28.00;50.90;;;;;;5088351;28;20456;-68
2022/08/10 00:49:54;;;;;;;3.00;2.90;;;27.90;50.90;;;;;;5079173;28;20989;-68
2022/08/10 00:52:24;;;;;;;3.23;3.03;;;27.80;50.70;;;;;;5066783;28;20531;-68
2022/08/10 00:54:53;;;;;;;4.40;2.73;;;27.70;51.30;;;;;;5069902;28;20900;-68
2022/08/10 00:57:21;;;;;;;3.03;2.83;;;27.70;51.20;;;;;;5070981;28;20491;-68
2022/08/10 00:59:49;;;;;;;3.60;3.40;;;27.70;51.10;;;;;;5071471;28;20445;-68
2022/08/10 01:02:30;;;;;;;3.40;3.10;;;27.70;51.40;;;;;;5078530;28;20463;-68
2022/08/10 01:05:02;;;;;;;3.37;3.13;;;27.70;51.10;;;;;;5072245;28;20466;-68
2022/08/10 01:07:56;;;;;;;3.00;2.90;;;27.70;51.80;;;;;;5071932;28;20481;-68
2022/08/10 01:10:34;;;;;;;3.00;2.87;;;27.80;51.50;;;;;;5070899;28;20457;-68
2022/08/10 01:13:09;;;;;;;2.80;2.70;;;27.70;51.10;;;;;;5085009;22;20985;-87
2022/08/10 01:15:52;;;;;;;7.13;3.10;;;27.70;51.30;;;;;;5067402;28;20468;-87
2022/08/10 01:18:34;;;;;;;3.33;3.07;;;27.60;51.40;;;;;;5076678;28;20446;-86
2022/08/10 01:21:40;;;;;;;3.60;3.40;;;27.60;51.90;;;;;;5075034;28;20433;-88
2022/08/10 01:24:49;;;;;;;3.20;3.00;;;27.60;51.20;;;;;;5070693;28;20449;-87
2022/08/10 01:27:28;;;;;;;3.23;3.03;;;27.60;51.90;;;;;;5073088;28;20461;-87
2022/08/10 01:30:02;;;;;;;3.10;2.90;;;27.60;51.50;;;;;;5071902;28;20482;-88
2022/08/10 01:32:42;;;;;;;4.00;3.37;;;27.60;51.30;;;;;;5056143;28;20497;-87
2022/08/10 01:35:13;;;;;;;3.50;3.30;;;27.50;51.60;;;;;;5074351;28;20473;-86
2022/08/10 01:37:47;;;;;;;3.30;3.10;;;27.50;51.50;;;;;;5074380;28;20894;-87
2022/08/10 01:40:25;;;;;;;3.73;3.53;;;27.50;51.70;;;;;;5069859;28;20534;-87
2022/08/10 01:42:55;;;;;;;2.83;2.53;;;27.50;51.50;;;;;;5059773;28;20450;-87
2022/08/10 01:45:39;;;;;;;3.70;3.50;;;27.50;51.70;;;;;;5072078;28;20499;-87
2022/08/10 01:48:30;;;;;;;3.33;3.13;;;27.60;51.40;;;;;;5074048;28;20484;-86
2022/08/10 01:51:08;;;;;;;3.00;2.90;;;27.60;51.50;;;;;;5074764;28;20847;-87
2022/08/10 01:53:41;;;;;;;3.20;3.10;;;27.50;51.80;;;;;;5073780;28;20450;-88
2022/08/10 01:56:12;;;;;;;2.93;2.83;;;27.60;51.50;;;;;;5074082;28;20939;-86
2022/08/10 01:58:42;;;;;;;3.50;3.20;;;27.50;51.80;;;;;;5074111;28;20935;-87
2022/08/10 02:01:15;;;;;;;3.43;3.13;;;27.50;51.90;;;;;;5074386;28;20469;-87
2022/08/10 02:03:47;;;;;;;2.90;2.73;;;27.50;51.50;;;;;;5068101;28;20804;-87
2022/08/10 02:06:36;;;;;;;3.97;3.60;;;27.50;51.70;;;;;;5054260;28;20424;-87
2022/08/10 02:09:07;;;;;;;3.27;3.07;;;27.50;51.40;;;;;;5053505;28;20836;-87
2022/08/10 02:11:36;;;;;;;3.37;3.17;;;27.50;51.70;;;;;;5056910;28;20467;-88
2022/08/10 02:14:29;;;;;;;3.63;3.33;;;27.40;52.00;;;;;;5053854;28;20455;-87
2022/08/10 02:17:06;;;;;;;3.37;3.23;;;27.40;51.70;;;;;;5048317;28;20467;-87
2022/08/10 02:19:38;;;;;;;3.80;3.60;;;27.30;52.00;;;;;;5053220;28;20434;-88
2022/08/10 02:22:08;;;;;;;3.80;3.17;;;27.30;52.00;;;;;;5053396;28;20482;-87
2022/08/10 02:24:59;;;;;;;4.20;3.80;;;27.30;51.70;;;;;;5052980;28;20454;-87
2022/08/10 02:27:28;;;;;;;2.80;2.60;;;27.30;51.90;;;;;;5053828;28;20474;-87
2022/08/10 02:29:58;;;;;;;3.63;3.43;;;27.20;51.90;;;;;;5053972;28;20513;-87
2022/08/10 02:32:30;;;;;;;4.57;3.87;;;27.30;52.50;;;;;;5053390;28;20478;-88
2022/08/10 02:35:10;;;;;;;3.30;3.10;;;27.30;51.80;;;;;;5053440;28;20458;-86
2022/08/10 02:37:52;;;;;;;3.90;3.60;;;27.30;51.90;;;;;;5053429;28;20916;-87
2022/08/10 02:40:21;;;;;;;6.80;3.70;;;27.30;51.90;;;;;;5046981;28;20467;-88
2022/08/10 02:43:20;;;;;;;3.20;3.00;;;27.20;51.80;;;;;;5047256;28;20564;-87
2022/08/10 02:46:13;;;;;;;3.67;3.40;;;27.20;52.20;;;;;;5052913;28;20477;-87
2022/08/10 02:48:54;;;;;;;3.40;3.10;;;27.10;52.20;;;;;;5052714;28;20461;-87
2022/08/10 02:51:29;;;;;;;4.33;3.40;;;27.10;52.10;;;;;;5052747;28;20535;-86
2022/08/10 02:54:21;;;;;;;4.00;3.70;;;27.10;52.30;;;;;;5052308;28;20441;-87
2022/08/10 02:56:56;;;;;;;4.00;3.23;;;27.10;52.00;;;;;;5053302;28;20458;-87
2022/08/10 02:59:29;;;;;;;3.43;3.23;;;27.10;52.40;;;;;;5051148;28;20491;-86
2022/08/10 03:02:10;;;;;;;3.23;3.03;;;27.00;52.20;;;;;;5050560;28;20515;-86
2022/08/10 03:04:45;;;;;;;3.77;3.47;;;26.90;52.50;;;;;;5052129;28;20546;-87
2022/08/10 03:07:29;;;;;;;3.10;2.90;;;26.90;52.20;;;;;;5052484;28;20936;-87
2022/08/10 03:10:15;;;;;;;3.80;3.60;;;26.90;52.90;;;;;;5051238;28;20440;-87
2022/08/10 03:12:44;;;;;;;4.50;3.47;;;26.90;52.10;;;;;;5047551;28;20582;-87
2022/08/10 03:15:14;;;;;;;3.30;3.10;;;26.90;52.30;;;;;;5052642;28;20467;-87
2022/08/10 03:17:46;;;;;;;3.47;3.27;;;26.90;52.60;;;;;;5053217;28;20426;-88
2022/08/10 03:20:29;;;;;;;3.70;3.40;;;26.90;52.80;;;;;;5045571;28;20543;-87
2022/08/10 03:23:10;;;;;;;3.67;3.47;;;26.90;52.20;;;;;;5052436;28;20478;-87
2022/08/10 03:25:39;;;;;;;3.70;3.50;;;26.90;52.40;;;;;;5052190;28;20445;-87
2022/08/10 03:28:21;;;;;;;3.70;3.40;;;26.90;52.40;;;;;;5052253;28;20516;-87
2022/08/10 03:30:50;;;;;;;3.67;3.47;;;26.90;52.60;;;;;;5051319;28;20512;-87
2022/08/10 03:33:19;;;;;;;3.57;3.37;;;26.90;52.50;;;;;;5052155;28;20530;-87
2022/08/10 03:35:49;;;;;;;3.70;3.50;;;26.90;52.20;;;;;;5052489;28;20461;-87
2022/08/10 03:38:39;;;;;;;2.90;2.80;;;26.90;52.40;;;;;;5051659;28;20527;-87
2022/08/10 03:41:11;;;;;;;4.00;3.70;;;27.00;52.20;;;;;;5051862;28;20541;-87
2022/08/10 03:43:46;;;;;;;3.10;2.90;;;27.00;52.00;;;;;;5052102;28;20456;-87
2022/08/10 03:46:18;;;;;;;3.63;3.40;;;27.00;52.50;;;;;;5052181;28;20556;-86
2022/08/10 03:48:49;;;;;;;3.37;3.23;;;27.00;52.20;;;;;;5039982;28;20490;-87
2022/08/10 03:51:20;;;;;;;3.20;3.00;;;27.00;52.50;;;;;;5051582;28;21013;-87
2022/08/10 03:53:49;;;;;;;4.00;3.53;;;27.00;52.80;;;;;;5050917;28;20644;-86
2022/08/10 03:56:36;;;;;;;3.40;3.20;;;27.00;52.00;;;;;;5051627;28;21000;-87
2022/08/10 03:59:06;;;;;;;3.57;3.27;;;26.90;52.70;;;;;;5051841;28;20457;-87
2022/08/10 04:01:35;;;;;;;4.57;3.97;;;27.00;52.60;;;;;;5050839;28;21012;-87
2022/08/10 04:04:23;;;;;;;3.07;2.87;;;26.90;51.90;;;;;;5052047;28;20448;-87
2022/08/10 04:06:56;;;;;;;3.10;2.90;;;26.90;52.20;;;;;;5045565;28;20565;-86
2022/08/10 04:09:27;;;;;;;3.83;3.53;;;26.90;52.60;;;;;;5051582;28;20452;-86
2022/08/10 04:12:15;;;;;;;2.90;2.70;;;26.90;52.20;;;;;;5049207;28;20478;-86
2022/08/10 04:14:43;;;;;;;4.30;4.07;;;26.80;52.30;;;;;;5050288;28;20437;-87
2022/08/10 04:17:21;;;;;;;3.93;3.73;;;26.70;52.30;;;;;;5051459;28;20447;-87
2022/08/10 04:20:16;;;;;;;3.67;3.47;;;26.70;52.80;;;;;;5052123;28;20540;-87
2022/08/10 04:22:49;;;;;;;3.30;3.10;;;26.70;52.80;;;;;;5032238;28;20489;-87
2022/08/10 04:25:19;;;;;;;3.50;3.30;;;26.60;53.00;;;;;;5031772;28;20535;-86
2022/08/10 04:27:48;;;;;;;4.17;3.93;;;26.70;53.00;;;;;;5038908;28;20504;-87
2022/08/10 04:30:16;;;;;;;3.73;3.53;;;26.70;52.50;;;;;;5049325;28;20489;-87
2022/08/10 04:32:48;;;;;;;3.40;3.10;;;26.70;52.30;;;;;;5045732;28;20546;-87
2022/08/10 04:35:20;;;;;;;3.37;3.17;;;26.60;52.60;;;;;;5031954;28;20445;-87
2022/08/10 04:37:51;;;;;;;3.10;2.90;;;26.60;52.60;;;;;;5032083;28;20465;-86
2022/08/10 04:40:20;;;;;;;4.17;3.87;;;26.60;53.10;;;;;;5032278;28;20458;-86
2022/08/10 04:43:02;;;;;;;4.17;3.87;;;26.60;52.40;;;;;;5040691;28;20886;-86
2022/08/10 04:45:40;;;;;;;2.90;2.70;;;26.70;52.80;;;;;;5044929;28;20559;-87
2022/08/10 04:48:23;;;;;;;3.60;3.40;;;26.70;52.60;;;;;;5050133;28;20447;-87
2022/08/10 04:51:13;;;;;;;3.63;3.43;;;26.70;53.00;;;;;;5053073;28;20473;-87
2022/08/10 04:53:47;;;;;;;4.67;3.27;;;26.80;52.60;;;;;;5053183;28;20812;-86
2022/08/10 04:56:34;;;;;;;4.37;3.60;;;26.80;52.60;;;;;;5046023;28;20527;-87
2022/08/10 04:59:03;;;;;;;3.50;3.30;;;26.80;52.30;;;;;;5034880;28;21001;-87
2022/08/10 05:01:32;;;;;;;4.23;3.93;;;26.90;52.50;;;;;;5044872;28;20483;-87
2022/08/10 05:04:20;;;;;;;3.70;3.40;;;26.90;52.10;;;;;;5053985;28;20475;-87
2022/08/10 05:07:06;;;;;;;3.97;3.77;;;26.90;52.50;;;;;;5053843;28;20458;-86
2022/08/10 05:09:36;;;;;;;3.77;3.30;;;26.90;52.40;;;;;;5053785;28;20499;-87
2022/08/10 05:12:25;;;;;;;3.50;3.30;;;26.90;52.80;;;;;;5045068;28;20581;-87
2022/08/10 05:14:53;;;;;;;5.70;3.77;;;26.90;52.60;;;;;;5054242;28;20802;-86
2022/08/10 05:17:22;;;;;;;3.53;3.23;;;27.00;52.40;;;;;;5053805;28;20442;-87
2022/08/10 05:19:51;;;;;;;4.20;3.80;;;27.00;52.40;;;;;;5053008;28;20903;-87
2022/08/10 05:22:35;;;;;;;4.47;4.17;;;27.00;52.20;;;;;;5043594;28;20504;-86
2022/08/10 05:25:08;;;;;;;3.70;3.37;;;27.00;52.30;;;;;;5041374;28;20447;-86
2022/08/10 05:27:36;;;;;;;3.07;2.87;;;26.90;52.50;;;;;;5047553;28;20442;-86
2022/08/10 05:30:06;;;;;;;3.90;3.60;;;26.90;52.60;;;;;;5054094;28;20462;-85
2022/08/10 05:32:36;;;;;;;3.30;3.10;;;27.00;52.60;;;;;;5052710;28;20508;-86
2022/08/10 05:35:25;;;;;;;4.20;3.10;;;27.00;52.50;;;;;;5052517;28;20487;-85
2022/08/10 05:37:55;;;;;;;3.23;3.07;;;27.00;52.70;;;;;;5054503;28;20446;-86
2022/08/10 05:40:44;;;;;;;4.10;3.80;;;27.10;52.30;;;;;;5050841;28;20466;-86
2022/08/10 05:43:17;;;;;;;3.80;3.50;;;27.00;52.20;;;;;;5054299;28;20473;-85
2022/08/10 05:45:46;;;;;;;4.30;4.00;;;26.80;52.40;;;;;;5054058;28;20429;-86
2022/08/10 05:48:34;;;;;;;4.83;4.43;;;26.60;52.90;;;;;;5050805;28;20445;-85
2022/08/10 05:51:23;;;;;;;4.87;4.50;;;26.50;53.00;;;;;;5052115;28;20879;-85
2022/08/10 05:53:51;;;;;;;4.20;3.93;;;26.40;53.10;;;;;;5048097;28;20546;-85
2022/08/10 05:56:39;;;;;;;3.43;3.13;;;26.30;53.40;;;;;;5050861;28;20468;-85
2022/08/10 05:59:28;;;;;;;4.97;3.20;;;26.30;53.90;;;;;;5018295;28;20466;-65
2022/08/10 06:02:31;;;;;;;3.27;3.07;;;26.30;54.10;;;;;;5011517;28;20463;-64
2022/08/10 06:05:08;;;;;;;3.63;3.40;;;26.50;53.90;;;;;;5014056;28;20451;-64
2022/08/10 06:07:40;;;;;;;6.17;2.90;;;26.60;53.90;;;;;;5011539;28;20526;-63
2022/08/10 06:10:12;;;;;;;3.07;2.83;;;26.70;53.60;;;;;;5013537;28;20507;-64
2022/08/10 06:16:06;;;;;;;3.50;2.97;;;26.90;53.50;;;;;;5012628;28;20462;-64
2022/08/10 06:18:36;;;;;;;3.27;3.00;;;26.90;53.40;;;;;;5004066;28;20482;-64
2022/08/10 06:21:08;;;;;;;3.20;3.00;;;27.00;53.20;;;;;;5003342;28;20950;-63
2022/08/10 06:23:38;;;;;;;2.90;2.70;;;27.00;53.20;;;;;;5003563;28;20463;-63
2022/08/10 06:26:07;;;;;;;2.90;2.70;;;27.10;53.20;;;;;;5002032;28;20588;-63
2022/08/10 06:28:48;;;;;;;3.20;2.90;;;27.10;53.20;;;;;;4999033;28;20962;-64
2022/08/10 06:31:33;;;;;;;2.70;2.60;;;27.20;53.20;;;;;;4999075;28;20797;-64
2022/08/10 06:34:19;;;;;;;3.13;2.77;;;27.20;53.10;;;;;;5000128;28;20473;-64
2022/08/10 06:36:47;;;;;;;2.80;2.60;;;27.30;53.10;;;;;;5003206;28;20455;-67
2022/08/10 06:39:16;;;;;;;3.23;2.70;;;27.30;53.10;;;;;;4999349;28;20465;-63
2022/08/10 06:42:09;;;;;;;2.57;2.37;;;27.20;53.10;;;;;;4999630;28;20470;-68
2022/08/10 06:44:54;;;;;;;3.13;2.83;;;27.30;53.10;;;;;;4999598;28;20967;-65
2022/08/10 06:47:26;;;;;;;2.97;2.70;;;27.30;53.10;;;;;;5003445;28;20499;-64
2022/08/10 06:49:58;;;;;;;5.03;3.03;;;27.30;53.10;;;;;;5004464;28;20510;-64
2022/08/10 06:52:33;;;;;;;3.20;3.00;;;27.30;53.30;;;;;;5002084;28;20950;-64
2022/08/10 06:55:05;;;;;;;3.00;2.80;;;27.30;53.50;;;;;;5001679;28;20487;-66
2022/08/10 06:57:37;;;;;;;3.70;2.93;;;27.30;53.60;;;;;;5001655;28;20583;-67
2022/08/10 07:00:08;;;;;;;4.47;3.60;;;27.30;53.60;;;;;;5004922;28;20492;-66
2022/08/10 07:02:44;;;;;;;4.37;3.50;;;27.30;53.80;;;;;;5006498;28;20848;-70
2022/08/10 07:05:18;;;;;;;3.53;3.23;;;27.40;54.10;;;;;;5008759;28;20550;-71
2022/08/10 07:07:48;;;;;;;3.73;3.03;;;27.40;54.60;;;;;;4997466;28;20498;-73
2022/08/10 07:10:19;;;;;;;3.60;3.40;;;27.40;55.50;;;;;;5001843;28;20514;-70
2022/08/10 07:12:50;;;;;;;5.53;3.00;;;27.40;55.30;;;;;;4998912;28;20542;-71
2022/08/10 07:15:20;;;;;;;3.50;2.97;;;27.40;55.10;;;;;;5002780;28;20476;-70
2022/08/10 07:17:52;;;;;;;3.60;3.30;;;27.40;54.90;;;;;;5004204;28;20498;-71
2022/08/10 07:20:22;;;;;;;3.03;2.83;;;27.30;54.60;;;;;;5004506;28;20439;-71
2022/08/10 07:22:53;;;;;;;3.00;2.80;;;27.30;54.70;;;;;;5002783;28;20925;-72
2022/08/10 07:25:45;;;;;;;3.33;3.13;;;27.40;54.60;;;;;;4998690;28;20455;-71
2022/08/10 07:28:14;;;;;;;2.57;2.37;;;27.40;54.50;;;;;;4999558;28;20872;-72
2022/08/10 07:30:45;;;;;;;2.87;2.67;;;27.50;54.40;;;;;;5001971;28;20460;-71
2022/08/10 07:33:17;;;;;;;4.20;3.00;;;27.50;54.30;;;;;;5002227;28;20543;-73
2022/08/10 07:35:47;;;;;;;3.43;2.60;;;27.50;54.50;;;;;;5004134;28;21045;-71
2022/08/10 07:38:18;;;;;;;3.37;3.07;;;27.50;54.40;;;;;;5002418;28;20485;-71
2022/08/10 07:40:48;;;;;;;3.07;2.77;;;27.50;54.30;;;;;;4995877;28;20503;-70
2022/08/10 07:43:17;;;;;;;3.00;2.87;;;27.50;54.20;;;;;;5003918;28;20464;-70
2022/08/10 07:45:48;;;;;;;3.07;2.87;;;27.50;53.90;;;;;;5018333;28;20839;-70
2022/08/10 07:48:19;;;;;;;2.50;2.30;;;27.50;54.10;;;;;;5012742;28;20438;-70
2022/08/10 07:50:49;;;;;;;2.80;2.60;;;27.60;54.00;;;;;;5012660;28;20487;-71
2022/08/10 07:53:21;;;;;;;3.00;2.80;;;27.60;53.90;;;;;;5012196;28;20529;-70
2022/08/10 07:55:51;;;;;;;2.50;1.90;;;27.60;53.90;;;;;;5004659;28;20514;-70
2022/08/10 07:58:38;;;;;;;3.03;2.83;;;27.60;53.80;;;;;;4998327;28;20491;-69
2022/08/10 08:01:17;;;;;;;2.97;2.67;;;27.60;53.70;;;;;;5002188;28;20860;-72
2022/08/10 08:03:47;;;;;;;2.60;2.50;;;27.60;53.80;;;;;;5018446;28;20455;-72
2022/08/10 08:06:37;;;;;;;3.47;2.67;;;27.60;53.80;;;;;;5001892;28;20459;-71
2022/08/10 08:09:06;;;;;;;2.70;2.50;;;27.60;53.70;;;;;;5012295;28;20516;-69
2022/08/10 08:11:36;;;;;;;4.00;3.00;;;27.50;53.80;;;;;;5001024;28;20487;-68
2022/08/10 08:14:07;;;;;;;2.80;2.60;;;27.50;53.80;;;;;;5001324;28;20485;-68
2022/08/10 08:16:40;;;;;;;2.90;2.70;;;27.50;53.80;;;;;;4995764;28;20986;-68
2022/08/10 08:19:08;;;;;;;3.23;2.80;;;27.60;53.60;;;;;;4996556;28;20503;-70
2022/08/10 08:21:56;;;;;;;3.37;2.80;;;27.60;53.60;;;;;;4998867;28;20453;-67
2022/08/10 08:24:45;;;;;;;3.00;2.70;;;27.70;53.60;;;;;;5003537;28;20528;-69
2022/08/10 08:27:16;;;;;;;2.50;2.40;;;27.60;53.70;;;;;;5004290;28;20452;-68
2022/08/10 08:29:46;;;;;;;3.80;3.13;;;27.60;53.60;;;;;;5003081;28;20472;-69
2022/08/10 08:32:21;;;;;;;2.80;2.60;;;27.60;53.60;;;;;;5001213;28;20511;-69
2022/08/10 08:34:53;;;;;;;4.90;2.40;;;27.60;53.60;;;;;;5001039;28;20456;-68
2022/08/10 08:37:23;;;;;;;4.93;2.60;;;27.70;53.50;;;;;;5005195;28;21033;-68
2022/08/10 08:40:15;;;;;;;2.80;2.60;;;27.70;53.50;;;;;;5006440;28;20450;-69
2022/08/10 08:43:08;;;;;;;2.60;2.40;;;27.70;53.40;;;;;;4999409;28;20466;-70
2022/08/10 08:45:48;;;;;;;2.83;2.63;;;27.60;53.50;;;;;;5003453;28;20459;-68
2022/08/10 08:48:51;;;;;;;3.27;2.30;;;27.60;53.80;;;;;;5008403;28;20461;-68
2022/08/10 08:51:30;;;;;;;3.13;2.50;;;27.50;53.80;;;;;;5000574;28;20453;-70
2022/08/10 08:54:33;;;;;;;2.40;2.30;;;27.50;53.90;;;;;;4999058;28;20483;-69
2022/08/10 08:57:08;;;;;;;4.13;1.87;;;27.50;53.90;;;;;;4996695;28;20624;-70
2022/08/10 08:59:51;;;;;;;2.70;2.60;;;27.40;53.90;;;;;;5001937;28;20474;-69
2022/08/10 09:02:34;;;;;;;2.73;2.53;;;27.40;53.90;;;;;;5000750;28;20547;-69
2022/08/10 09:05:23;;;;;;;2.40;2.30;;;27.40;53.80;;;;;;4998922;28;20455;-68
2022/08/10 09:08:21;;;;;;;2.70;2.50;;;27.50;53.70;;;;;;5008243;28;20532;-70
2022/08/10 09:10:57;;;;;;;3.07;2.80;;;27.50;53.60;;;;;;5000420;28;20507;-68
2022/08/10 09:13:31;;;;;;;2.73;2.53;;;27.50;53.70;;;;;;5003198;28;20620;-68
2022/08/10 09:16:15;;;;;;;2.40;2.30;;;27.50;53.70;;;;;;5005216;28;20591;-68
2022/08/10 09:18:51;;;;;;;2.47;2.37;;;27.50;53.80;;;;;;5002738;28;20495;-69
2022/08/10 09:21:38;;;;;;;2.77;2.40;;;27.40;53.70;;;;;;5004492;28;20486;-70
2022/08/10 09:24:43;;;;;;;3.13;2.57;;;27.30;53.60;;;;;;5004368;28;20539;-71
2022/08/10 09:27:19;;;;;;;2.17;2.07;;;27.30;53.40;;;;;;5002619;28;20949;-69
2022/08/10 09:29:54;;;;;;;3.00;2.20;;;27.30;53.30;;;;;;5002936;28;20479;-69
2022/08/10 09:32:32;;;;;;;2.90;2.23;;;27.30;53.20;;;;;;5005023;28;20514;-68
2022/08/10 09:35:27;;;;;;;2.60;2.40;;;27.40;53.10;;;;;;4994572;28;21042;-71
2022/08/10 09:38:28;;;;;;;4.00;2.63;;;27.40;52.90;;;;;;5004696;28;20463;-68
2022/08/10 09:41:05;;;;;;;3.80;2.30;;;27.40;53.20;;;;;;5003677;28;20441;-73
2022/08/10 09:43:48;;;;;;;2.03;1.93;;;27.40;53.10;;;;;;5010518;28;20462;-68
2022/08/10 09:46:29;;;;;;;2.37;2.27;;;27.40;53.10;;;;;;5000247;28;20481;-70
2022/08/10 09:49:05;;;;;;;2.40;2.20;;;27.40;53.10;;;;;;5011299;28;20482;-69
2022/08/10 09:51:44;;;;;;;2.43;2.33;;;27.40;53.10;;;;;;5009533;28;20479;-69
2022/08/10 09:54:42;;;;;;;2.50;2.40;;;27.50;53.10;;;;;;4996214;28;20551;-69
2022/08/10 09:57:20;;;;;;;2.30;2.20;;;27.40;52.90;;;;;;5005871;28;21057;-69
2022/08/10 10:00:11;;;;;;;3.00;2.80;;;27.40;52.90;;;;;;5006752;28;20461;-71
2022/08/10 10:02:51;;;;;;;2.23;2.10;;;27.30;52.90;;;;;;5008645;28;20973;-69
2022/08/10 10:05:30;;;;;;;2.87;2.43;;;27.30;52.80;;;;;;5003211;28;20461;-68
2022/08/10 10:08:10;;;;;;;2.27;2.10;;;27.30;52.40;;;;;;5002108;28;20530;-69
2022/08/10 10:10:52;;;;;;;2.47;2.37;;;27.20;52.70;;;;;;4997010;28;20965;-67
2022/08/10 10:13:30;;;;;;;3.03;2.83;;;27.50;51.50;;;;;;5001765;28;20496;-67
2022/08/10 10:16:39;;;;;;;3.43;2.77;;;27.60;52.00;;;;;;4999519;28;20496;-69
2022/08/10 10:19:27;;;;;;;2.20;2.10;;;27.70;51.50;;;;;;5015043;28;20462;-68
2022/08/10 10:22:08;;;;;;;2.80;2.60;;;27.80;51.60;;;;;;5004847;28;20466;-68
2022/08/10 10:24:45;;;;;;;3.37;3.10;;;27.80;51.10;;;;;;5001711;28;20540;-67
2022/08/10 10:27:23;;;;;;;3.60;3.10;;;27.90;50.70;;;;;;5004633;28;21002;-69
2022/08/10 10:29:59;;;;;;;7.80;4.80;;;28.00;51.50;;;;;;5001038;28;20854;-67
2022/08/10 10:32:39;;;;;;;12.93;7.20;;;28.00;51.60;;;;;;5003390;28;20448;-68
2022/08/10 10:35:23;;;;;;;14.70;7.00;;;27.90;51.70;;;;;;5004614;28;20441;-68
2022/08/10 10:37:54;;;;;;;15.23;6.20;;;27.80;51.40;;;;;;5001634;28;20482;-69
2022/08/10 10:40:37;;;;;;;7.50;4.33;;;27.80;51.90;;;;;;5000479;28;20902;-67
2022/08/10 10:43:21;;;;;;;9.87;4.23;;;27.80;51.60;;;;;;5013404;28;20457;-69
2022/08/10 10:45:58;;;;;;;5.23;3.40;;;27.80;51.80;;;;;;5004583;28;20453;-68
2022/08/10 10:48:40;;;;;;;6.60;3.30;;;27.80;51.90;;;;;;5009108;28;20456;-68
2022/08/10 10:51:14;;;;;;;7.30;3.77;;;27.80;51.90;;;;;;5001407;28;20848;-68
2022/08/10 10:53:49;;;;;;;5.37;4.10;;;27.80;51.90;;;;;;5008380;28;20468;-68
2022/08/10 10:56:26;;;;;;;7.20;3.90;;;27.80;51.90;;;;;;5003427;28;20909;-68
2022/08/10 10:59:06;;;;;;;5.70;3.10;;;27.80;52.20;;;;;;5006508;28;21080;-69
2022/08/10 11:02:06;;;;;;;2.83;2.53;;;27.80;52.00;;;;;;5005450;28;20467;-68
2022/08/10 11:04:42;;;;;;;3.03;2.30;;;28.10;50.20;;;;;;4994718;28;20534;-68
2022/08/10 11:07:17;;;;;;;6.40;3.80;;;28.30;50.60;;;;;;4997629;28;20470;-68
2022/08/10 11:09:59;;;;;;;7.23;3.43;;;28.40;51.30;;;;;;5001313;28;20460;-70
2022/08/10 11:12:55;;;;;;;2.63;2.33;;;28.50;51.20;;;;;;5001754;28;20548;-69
2022/08/10 11:15:39;;;;;;;3.00;2.67;;;28.60;50.30;;;;;;5000260;28;20941;-71
2022/08/10 11:18:33;;;;;;;3.20;2.37;;;28.70;50.70;;;;;;4999007;28;20894;-68
2022/08/10 11:21:13;;;;;;;5.30;3.20;;;28.80;49.60;;;;;;5000792;28;20447;-67
2022/08/10 11:23:49;;;;;;;3.60;2.50;;;28.90;50.60;;;;;;4999774;28;22129;-71
2022/08/10 11:26:51;;;;;;;2.50;2.30;;;28.80;50.10;;;;;;5002628;28;20459;-69
2022/08/10 11:29:25;;;;;;;4.07;2.43;;;28.70;50.60;;;;;;5003739;28;20540;-69
2022/08/10 11:32:03;;;;;;;3.00;2.60;;;28.80;50.50;;;;;;5007719;28;20992;-68
2022/08/10 11:34:41;;;;;;;3.47;2.97;;;28.80;50.70;;;;;;5000740;28;20507;-70
2022/08/10 11:37:37;;;;;;;5.77;2.60;;;28.90;50.90;;;;;;5003247;28;20470;-68
2022/08/10 11:40:31;;;;;;;3.47;2.77;;;28.90;51.40;;;;;;4998994;28;20496;-73
2022/08/10 11:43:13;;;;;;;3.47;2.27;;;28.90;51.40;;;;;;5006220;28;20522;-68
2022/08/10 11:45:45;;;;;;;3.03;2.73;;;29.00;51.40;;;;;;5000567;28;20994;-67
2022/08/10 11:48:31;;;;;;;2.80;2.50;;;29.10;51.20;;;;;;5003430;28;21083;-70
2022/08/10 11:51:25;;;;;;;4.53;3.20;;;29.10;51.20;;;;;;5007789;28;20888;-68
2022/08/10 11:54:00;;;;;;;6.30;2.67;;;29.10;51.20;;;;;;5012895;28;20718;-68
2022/08/10 11:56:32;;;;;;;3.07;2.33;;;29.20;50.50;;;;;;5017156;28;20519;-70
2022/08/10 12:01:50;;;;;;;2.60;2.40;;;29.30;49.90;;;;;;4997376;28;20508;-69
2022/08/10 12:04:21;;;;;;;5.40;2.47;;;29.30;50.80;;;;;;5003217;28;20938;-70
2022/08/10 12:06:52;;;;;;;2.60;2.30;;;29.30;50.40;;;;;;5006398;28;20448;-67
2022/08/10 12:09:25;;;;;;;2.80;2.60;;;29.30;50.90;;;;;;5006329;28;20450;-68
2022/08/10 12:12:13;;;;;;;2.53;2.33;;;29.30;50.90;;;;;;5004414;28;20467;-68
2022/08/10 12:14:50;;;;;;;2.63;2.43;;;29.30;50.50;;;;;;4995220;28;20499;-68
2022/08/10 12:17:23;;;;;;;2.40;2.10;;;29.40;50.60;;;;;;5006278;28;20488;-67
2022/08/10 12:20:03;;;;;;;2.37;2.27;;;29.40;50.80;;;;;;5009182;28;20567;-67
2022/08/10 12:22:38;;;;;;;2.47;2.30;;;29.40;50.80;;;;;;4998239;28;20519;-68
2022/08/10 12:25:14;;;;;;;2.20;2.10;;;29.50;50.70;;;;;;4997626;28;20487;-67
2022/08/10 12:28:11;;;;;;;2.00;1.90;;;29.50;50.40;;;;;;4994873;28;20456;-73
2022/08/10 12:30:46;;;;;;;2.13;2.03;;;29.50;50.30;;;;;;4999021;28;20491;-69
2022/08/10 12:33:21;;;;;;;2.33;2.23;;;29.50;50.50;;;;;;4991013;28;20479;-68
2022/08/10 12:35:59;;;;;;;2.50;2.30;;;29.50;50.40;;;;;;5006352;28;20451;-69
2022/08/10 12:38:51;;;;;;;4.03;2.10;;;29.60;50.50;;;;;;5007230;28;20615;-69
2022/08/10 12:41:24;;;;;;;2.70;2.03;;;29.60;50.30;;;;;;5007346;28;20555;-67
2022/08/10 12:44:18;;;;;;;2.03;1.93;;;29.60;50.20;;;;;;5017349;28;20467;-70
2022/08/10 12:46:59;;;;;;;2.20;1.80;;;29.70;50.20;;;;;;4999105;28;20486;-68
2022/08/10 12:49:44;;;;;;;1.93;1.80;;;29.80;50.10;;;;;;4994865;28;20462;-68
2022/08/10 12:52:42;;;;;;;2.33;2.23;;;29.80;50.00;;;;;;4997644;28;20462;-69
2022/08/10 12:55:11;;;;;;;2.13;2.00;;;29.80;49.80;;;;;;4997807;28;20498;-68
2022/08/10 12:57:40;;;;;;;2.60;2.00;;;29.90;49.00;;;;;;5002894;28;20491;-71
2022/08/10 13:00:10;;;;;;;7.83;2.40;;;29.90;50.00;;;;;;5005813;28;20462;-72
2022/08/10 13:02:46;;;;;;;2.40;2.20;;;30.00;50.10;;;;;;5010360;28;20899;-72
2022/08/10 13:05:17;;;;;;;1.97;1.87;;;30.00;50.30;;;;;;5008672;28;20814;-72
2022/08/10 13:09:07;;;;;;;2.07;1.97;;;30.00;50.30;;;;;;5004626;28;20515;-74
2022/08/10 13:11:01;;;;;;;2.40;2.20;;;30.00;50.30;;;;;;5007855;28;20475;-68
2022/08/10 13:13:55;;;;;;;2.37;2.17;;;30.00;50.50;;;;;;5011590;28;20468;-69
2022/08/10 13:16:24;;;;;;;2.83;2.63;;;30.10;50.60;;;;;;5010439;28;21762;-68
2022/08/10 13:19:01;;;;;;;3.10;2.90;;;30.10;50.10;;;;;;5012543;28;20481;-69
2022/08/10 13:21:34;;;;;;;3.30;3.07;;;30.20;50.40;;;;;;5007536;28;20465;-68
2022/08/10 13:24:10;;;;;;;5.60;2.90;;;30.20;50.40;;;;;;5008192;28;20548;-69
2022/08/10 13:26:43;;;;;;;4.67;2.63;;;30.30;50.30;;;;;;5006747;28;20926;-70
2022/08/10 13:29:34;;;;;;;5.60;3.07;;;30.30;50.10;;;;;;5003882;28;21946;-70
2022/08/10 13:32:05;;;;;;;6.07;2.60;;;30.40;50.20;;;;;;5004540;28;21391;-68
2022/08/10 13:34:44;;;;;;;5.00;2.80;;;30.40;49.60;;;;;;5002221;28;20460;-68
2022/08/10 13:37:16;;;;;;;3.13;2.83;;;30.40;50.10;;;;;;5005560;28;20881;-70
2022/08/10 13:39:49;;;;;;;3.13;2.27;;;30.40;50.00;;;;;;5000805;28;20841;-69
2022/08/10 13:42:30;;;;;;;4.30;2.63;;;30.50;49.70;;;;;;5000284;28;20944;-69
2022/08/10 13:45:09;;;;;;;3.03;2.27;;;30.60;49.30;;;;;;5006864;28;20526;-70
2022/08/10 13:47:38;;;;;;;2.67;2.47;;;30.60;49.60;;;;;;5008147;28;20459;-69